Terminal Aerodrome Forecast
Issued by NWS

Home | Current Version | Previous Version | Text Only | Print | Product List | Glossary On
Versions: 1 2 3 4 5 6 7 8 9 10 11 12 13 14 15 16 17 18 19 20 21 22 23 24 25 26 27 28 29 30 31
000
FTUS46 KLOX 212300
TAFPRB
TAF
KPRB 212336Z 2200/2224 35006KT P6SM BKN015
     FM220600 01005KT 5SM BR SCT004
     FM221000 VRB03KT 1/4SM FG VV001
     FM221800 02007KT 2SM BR BKN004
     FM222100 03009KT P6SM SCT250=

USA.gov is the U.S. government's official web portal to all federal, state and local government web resources and services.